Terminal Aerodrome Forecast
Issued by NWS

Home | Current Version | Previous Version | Graphics & Text | Print | Product List | Glossary On
Versions: 1 2 3 4 5 6 7 8 9 10 11 12 13 14 15 16 17 18 19 20 21 22 23 24 25 26 27 28 29 30
000
FTUS43 KABR 251000 AAC
TAFATY
TAF AMD
KATY 251037Z 2511/2606 14011KT P6SM VCTS SCT050CB BKN100
      TEMPO 2511/2512 P6SM -SHRA BKN050
     FM251200 17010KT P6SM SCT100
     FM251600 35011KT P6SM SCT120
     FM260200 VRB05KT P6SM SCT120=

USA.gov is the U.S. government's official web portal to all federal, state and local government web resources and services.